Time;durP1;ratioP1;P1;durP2;ratioP2;P2;SDS_P1;SDS_P2;PMS_P1;PMS_P2;Temp;Humidity;BMP_temperature;BMP_pressure;BME280_temperature;BME280_humidity;BME280_pressure;Samples;Min_cycle;Max_cycle;Signal;HPM_P1;HPM_P2
2022/07/25 00:01:53;;;;;;;7.30;6.57;;;;;;;17.99;90.94;101097.66;4953936;29;20222;-53
2022/07/25 00:04:19;;;;;;;6.75;6.15;;;;;;;17.77;91.55;101100.00;4953245;29;20193;-53
2022/07/25 00:06:45;;;;;;;7.57;6.72;;;;;;;17.68;92.76;101096.03;4954007;28;20183;-53
2022/07/25 00:09:11;;;;;;;7.57;6.80;;;;;;;17.56;93.33;101085.97;4954129;29;20718;-53
2022/07/25 00:11:36;;;;;;;8.70;6.88;;;;;;;17.63;93.88;101093.63;4953679;29;20218;-51
2022/07/25 00:14:02;;;;;;;7.10;6.60;;;;;;;17.46;94.53;101088.41;4953386;29;20273;-53
2022/07/25 00:16:28;;;;;;;7.80;7.07;;;;;;;17.49;95.17;101086.38;4953425;29;20218;-52
2022/07/25 00:18:53;;;;;;;7.57;6.22;;;;;;;17.52;94.81;101084.44;4954165;28;20210;-51
2022/07/25 00:21:19;;;;;;;7.05;6.53;;;;;;;17.67;94.77;101078.91;4953850;29;20230;-50
2022/07/25 00:23:44;;;;;;;6.93;6.35;;;;;;;17.77;94.19;101075.59;4952624;28;20664;-51
2022/07/25 00:26:10;;;;;;;7.38;6.57;;;;;;;17.83;92.95;101073.41;4953538;29;20233;-52
2022/07/25 00:28:35;;;;;;;7.07;6.47;;;;;;;17.79;92.55;101074.53;4953274;29;20709;-52
2022/07/25 00:31:01;;;;;;;8.32;7.45;;;;;;;17.87;92.25;101068.66;4953032;29;20709;-51
2022/07/25 00:33:26;;;;;;;8.32;7.50;;;;;;;17.95;91.80;101071.75;4952820;29;20638;-51
2022/07/25 00:35:52;;;;;;;7.40;6.85;;;;;;;18.02;91.32;101073.09;4953392;29;20187;-51
2022/07/25 00:38:17;;;;;;;9.40;7.38;;;;;;;18.11;90.76;101053.50;4953308;29;20178;-51
2022/07/25 00:40:43;;;;;;;7.00;6.40;;;;;;;18.24;89.99;101064.41;4935811;29;20221;-53
2022/07/25 00:43:08;;;;;;;7.95;7.10;;;;;;;18.45;88.57;101056.63;4953025;29;20662;-51
2022/07/25 00:45:34;;;;;;;8.20;7.47;;;;;;;18.52;87.59;101063.41;4935791;29;20520;-53
2022/07/25 00:47:59;;;;;;;10.00;7.50;;;;;;;18.60;87.23;101060.16;4946241;29;20171;-46
2022/07/25 00:50:25;;;;;;;7.22;6.53;;;;;;;18.62;86.66;101060.06;4953233;29;20556;-49
2022/07/25 00:52:51;;;;;;;8.68;6.72;;;;;;;18.66;86.41;101061.59;4953117;29;20171;-51
2022/07/25 00:55:17;;;;;;;7.43;6.72;;;;;;;18.70;86.39;101066.72;4968345;28;20179;-51
2022/07/25 00:57:43;;;;;;;8.07;7.15;;;;;;;18.77;85.94;101058.16;4953258;29;20174;-53
2022/07/25 01:00:11;;;;;;;7.25;6.55;;;;;;;18.83;85.62;101055.91;4953218;29;20193;-48
2022/07/25 01:02:37;;;;;;;7.28;6.60;;;;;;;18.81;85.69;101054.28;4953284;29;20171;-51
2022/07/25 01:05:04;;;;;;;8.20;7.35;;;;;;;18.84;85.61;101057.63;4953027;29;20255;-49
2022/07/25 01:07:30;;;;;;;7.70;6.80;;;;;;;18.84;85.93;101057.63;4953135;29;20175;-51
2022/07/25 01:09:56;;;;;;;7.72;7.07;;;;;;;18.82;85.80;101053.28;4952850;29;20696;-49
2022/07/25 01:12:22;;;;;;;7.97;7.10;;;;;;;18.80;85.89;101052.53;4935777;29;20530;-47
2022/07/25 01:14:48;;;;;;;7.50;6.85;;;;;;;18.79;86.10;101050.81;4952983;29;20198;-49
2022/07/25 01:17:13;;;;;;;9.50;7.57;;;;;;;18.71;86.35;101052.16;4952687;29;20261;-48
2022/07/25 01:19:39;;;;;;;8.27;6.88;;;;;;;18.67;86.68;101039.78;4952843;29;20191;-48
2022/07/25 01:22:04;;;;;;;8.32;7.55;;;;;;;18.63;87.03;101040.97;4952539;29;20254;-48
2022/07/25 01:24:30;;;;;;;8.25;7.45;;;;;;;18.59;87.43;101035.88;4952850;29;20195;-50
2022/07/25 01:26:55;;;;;;;8.95;8.05;;;;;;;18.53;87.66;101027.16;4953022;29;20626;-48
2022/07/25 01:29:21;;;;;;;8.55;7.40;;;;;;;18.51;87.90;101025.53;4952498;29;20173;-48
2022/07/25 01:31:47;;;;;;;8.73;7.68;;;;;;;18.46;87.88;101015.00;4960703;28;20273;-48
2022/07/25 01:34:13;;;;;;;8.77;7.70;;;;;;;18.54;87.91;101022.59;4953870;28;20630;-49
2022/07/25 01:36:38;;;;;;;8.55;7.78;;;;;;;18.56;87.82;101022.50;4971942;28;20202;-49
2022/07/25 01:39:04;;;;;;;8.90;7.95;;;;;;;18.57;87.61;101013.38;4971764;28;20178;-46
2022/07/25 01:41:29;;;;;;;9.90;8.45;;;;;;;18.57;87.28;101008.81;4971750;28;20194;-49
2022/07/25 01:43:55;;;;;;;8.85;7.78;;;;;;;18.58;87.25;101006.97;4971821;28;20181;-49
2022/07/25 01:46:20;;;;;;;9.80;7.70;;;;;;;18.57;87.20;101013.38;4971517;28;20174;-50
2022/07/25 01:48:46;;;;;;;9.07;7.82;;;;;;;18.59;87.36;101004.16;4971009;28;20363;-46
2022/07/25 01:51:11;;;;;;;8.95;8.15;;;;;;;18.55;87.41;101002.63;4971508;28;20288;-47
2022/07/25 01:53:37;;;;;;;11.15;7.60;;;;;;;18.51;87.40;101003.81;4971798;28;20256;-50
2022/07/25 01:56:04;;;;;;;8.93;7.68;;;;;;;18.54;87.24;100992.75;4972021;28;20178;-46
2022/07/25 01:58:29;;;;;;;9.00;8.10;;;;;;;18.53;87.34;100996.44;4971018;28;20256;-50
2022/07/25 02:00:55;;;;;;;8.95;8.15;;;;;;;18.53;87.32;101004.59;4971229;28;20627;-49
2022/07/25 02:03:29;;;;;;;8.48;7.60;;;;;;;18.64;86.96;100984.84;4971465;28;20552;-47
2022/07/25 02:06:04;;;;;;;9.27;8.38;;;;;;;18.57;86.98;100986.25;4971618;28;20660;-47
2022/07/25 02:08:30;;;;;;;8.48;7.68;;;;;;;18.50;87.42;100977.66;4971710;28;20244;-51
2022/07/25 02:10:57;;;;;;;9.05;8.15;;;;;;;18.49;87.24;100971.34;4970962;28;20202;-51
2022/07/25 02:13:22;;;;;;;8.82;7.90;;;;;;;18.56;87.15;100969.09;4971469;28;20520;-51
2022/07/25 02:15:48;;;;;;;8.43;7.75;;;;;;;18.52;87.03;100968.44;4971146;28;20158;-51
2022/07/25 02:18:14;;;;;;;8.68;7.85;;;;;;;18.56;86.88;100969.09;4971313;28;20249;-46
2022/07/25 02:20:40;;;;;;;7.95;7.18;;;;;;;18.59;86.49;100958.03;4971236;28;20189;-47
2022/07/25 02:23:06;;;;;;;8.32;7.60;;;;;;;18.58;86.65;100950.84;4971057;28;20167;-47
2022/07/25 02:25:32;;;;;;;8.23;7.43;;;;;;;18.59;86.31;100949.03;4971022;28;20571;-48
2022/07/25 02:27:58;;;;;;;8.13;7.30;;;;;;;18.63;86.37;100950.53;4970584;28;20843;-49
2022/07/25 02:30:24;;;;;;;7.93;7.22;;;;;;;18.64;85.86;100939.56;4970923;28;20241;-48
2022/07/25 02:32:50;;;;;;;7.93;7.30;;;;;;;18.68;85.74;100932.09;4954142;28;20188;-47
2022/07/25 02:35:15;;;;;;;9.90;7.35;;;;;;;18.68;86.03;100919.38;4970963;28;20166;-50
2022/07/25 02:37:41;;;;;;;7.68;6.97;;;;;;;18.72;85.33;100925.47;4971396;28;20540;-50
2022/07/25 02:40:07;;;;;;;9.93;7.45;;;;;;;18.71;85.31;100924.59;4970752;28;20240;-47
2022/07/25 02:42:32;;;;;;;7.40;6.80;;;;;;;18.81;85.05;100921.28;4971186;28;20218;-45
2022/07/25 02:44:58;;;;;;;8.20;6.80;;;;;;;18.83;84.31;100927.47;4971372;28;20174;-47
2022/07/25 02:47:23;;;;;;;7.25;6.65;;;;;;;18.79;84.29;100904.22;4972830;28;20170;-46
2022/07/25 02:49:49;;;;;;;7.05;6.40;;;;;;;18.86;83.80;100916.38;4975038;28;20217;-47
2022/07/25 02:52:14;;;;;;;7.00;6.40;;;;;;;18.91;83.07;100909.66;4957379;28;20257;-47
2022/07/25 02:54:40;;;;;;;6.63;6.03;;;;;;;18.97;82.70;100910.16;4974925;28;20178;-48
2022/07/25 02:57:05;;;;;;;6.78;6.07;;;;;;;18.98;82.36;100898.31;4974153;28;20678;-52
2022/07/25 02:59:31;;;;;;;6.28;5.78;;;;;;;18.88;82.62;100893.56;4974713;28;20185;-51
2022/07/25 03:01:56;;;;;;;7.10;6.38;;;;;;;18.88;82.57;100890.84;4974313;28;20551;-51
2022/07/25 03:04:22;;;;;;;7.00;6.40;;;;;;;18.90;81.99;100890.75;4973627;28;20193;-48
2022/07/25 03:06:47;;;;;;;6.88;6.18;;;;;;;18.87;82.38;100905.41;4974292;28;20178;-49
2022/07/25 03:09:13;;;;;;;6.75;6.20;;;;;;;18.89;81.76;100894.41;4974487;28;20170;-50
2022/07/25 03:11:38;;;;;;;6.13;5.50;;;;;;;18.86;82.21;100887.38;4974010;28;20280;-51
2022/07/25 03:14:04;;;;;;;10.07;6.35;;;;;;;18.89;81.64;100879.03;4973503;28;20677;-49
2022/07/25 03:16:29;;;;;;;6.78;6.07;;;;;;;18.84;81.52;100888.47;4973689;28;20174;-50
2022/07/25 03:18:55;;;;;;;7.15;6.45;;;;;;;18.84;81.01;100881.19;4973884;28;20208;-49
2022/07/25 03:21:20;;;;;;;5.40;5.00;;;;;;;18.89;80.77;100883.56;4973324;28;20744;-49
2022/07/25 03:23:46;;;;;;;6.95;5.65;;;;;;;18.83;80.63;100884.03;4973294;28;20166;-49
2022/07/25 03:26:11;;;;;;;5.72;5.13;;;;;;;18.83;80.69;100881.31;4973024;28;20178;-51
2022/07/25 03:28:37;;;;;;;6.28;5.68;;;;;;;18.82;80.23;100879.56;4954608;29;20548;-50
2022/07/25 03:31:03;;;;;;;5.38;4.88;;;;;;;18.88;79.85;100879.13;4953404;28;20231;-50
2022/07/25 03:33:28;;;;;;;7.07;5.63;;;;;;;18.72;80.12;100865.75;4954211;28;20190;-49
2022/07/25 03:35:55;;;;;;;6.82;5.65;;;;;;;18.69;80.16;100865.97;4961800;28;20183;-49
2022/07/25 03:38:21;;;;;;;7.35;5.05;;;;;;;18.70;80.26;100873.13;4953304;29;20188;-50
2022/07/25 03:40:46;;;;;;;6.07;5.43;;;;;;;18.69;80.19;100871.38;4959839;28;20211;-50
2022/07/25 03:43:12;;;;;;;8.52;5.30;;;;;;;18.74;79.44;100858.38;4973084;28;20202;-49
2022/07/25 03:45:37;;;;;;;5.70;5.20;;;;;;;18.69;79.00;100849.69;4973352;28;20229;-50
2022/07/25 03:48:03;;;;;;;7.00;4.90;;;;;;;18.68;79.35;100848.81;4972672;28;20174;-51
2022/07/25 03:50:28;;;;;;;5.38;4.88;;;;;;;18.73;79.24;100834.91;4973600;28;20236;-49
2022/07/25 03:52:54;;;;;;;6.55;4.95;;;;;;;18.74;78.64;100826.66;4973092;28;20178;-49
2022/07/25 03:55:19;;;;;;;6.30;4.57;;;;;;;18.76;77.91;100826.56;4973457;28;20177;-50
2022/07/25 03:57:45;;;;;;;5.40;4.90;;;;;;;18.82;76.92;100812.56;4972661;28;20205;-49
2022/07/25 04:00:11;;;;;;;6.53;4.55;;;;;;;18.88;76.88;100812.09;4972930;28;20365;-50
2022/07/25 04:02:36;;;;;;;6.47;4.40;;;;;;;18.93;75.75;100817.19;4973193;28;20237;-49
2022/07/25 04:05:04;;;;;;;5.75;4.40;;;;;;;19.04;74.84;100814.56;4972342;28;20174;-50
2022/07/25 04:07:29;;;;;;;4.95;4.25;;;;;;;19.08;74.31;100813.34;4972935;28;20245;-49
2022/07/25 04:09:55;;;;;;;5.70;4.35;;;;;;;19.13;74.15;100810.28;4972617;28;20313;-49
2022/07/25 04:12:20;;;;;;;4.82;4.35;;;;;;;19.14;73.72;100806.59;4972970;28;20170;-50
2022/07/25 04:14:46;;;;;;;5.53;4.15;;;;;;;19.20;73.62;100803.44;4972927;28;20616;-49
2022/07/25 04:17:11;;;;;;;8.90;4.10;;;;;;;19.23;73.13;100799.63;4972916;28;20184;-51
2022/07/25 04:19:37;;;;;;;9.48;4.05;;;;;;;19.22;73.42;100793.31;4973130;28;20208;-51
2022/07/25 04:22:02;;;;;;;8.75;4.10;;;;;;;19.24;73.56;100796.78;4973309;28;20174;-51
2022/07/25 04:24:28;;;;;;;5.20;3.90;;;;;;;19.31;73.14;100797.19;4972540;28;20182;-52
2022/07/25 04:26:53;;;;;;;4.18;3.83;;;;;;;19.31;73.17;100787.19;4966803;28;20179;-50
2022/07/25 04:29:19;;;;;;;6.90;3.90;;;;;;;19.34;72.86;100781.50;4953484;29;20266;-51
2022/07/25 04:31:44;;;;;;;4.88;3.67;;;;;;;19.39;72.46;100785.72;4920606;29;20524;-50
2022/07/25 04:34:10;;;;;;;4.63;3.53;;;;;;;19.46;71.65;100785.16;4952310;29;20210;-52
2022/07/25 04:36:35;;;;;;;4.93;3.90;;;;;;;19.44;72.03;100778.09;4953883;29;20178;-54
2022/07/25 04:39:01;;;;;;;4.78;3.83;;;;;;;19.50;71.62;100786.66;4953338;29;20175;-53
2022/07/25 04:41:26;;;;;;;5.40;3.65;;;;;;;19.51;71.35;100779.38;4953577;29;20197;-53
2022/07/25 04:43:52;;;;;;;4.43;3.75;;;;;;;19.57;71.05;100770.75;4953123;29;20188;-53
2022/07/25 04:46:21;;;;;;;5.60;3.72;;;;;;;19.66;71.25;100770.03;4953354;29;20187;-52
2022/07/25 04:48:47;;;;;;;3.80;3.50;;;;;;;19.68;70.66;100764.50;4953107;29;20185;-52
2022/07/25 04:51:13;;;;;;;4.35;3.95;;;;;;;19.66;70.93;100761.88;4953186;29;20293;-51
2022/07/25 04:53:38;;;;;;;5.72;3.55;;;;;;;19.72;70.24;100756.00;4952449;29;20261;-53
2022/07/25 04:56:05;;;;;;;4.05;3.63;;;;;;;19.74;70.19;100745.88;4953573;29;20214;-53
2022/07/25 04:58:30;;;;;;;5.63;3.63;;;;;;;19.79;69.81;100745.53;4953020;29;20643;-52
2022/07/25 05:00:57;;;;;;;4.93;3.63;;;;;;;19.82;70.00;100747.13;4953154;29;20285;-51
2022/07/25 05:03:23;;;;;;;6.03;3.58;;;;;;;19.95;69.33;100732.44;4952097;28;20174;-51
2022/07/25 05:05:49;;;;;;;4.80;3.50;;;;;;;20.06;68.68;100728.88;4952900;29;20173;-53
2022/07/25 05:08:15;;;;;;;4.45;3.25;;;;;;;20.14;68.68;100725.53;4953301;29;20250;-51
2022/07/25 05:10:41;;;;;;;3.38;3.08;;;;;;;20.16;67.79;100721.72;4951725;28;20823;-51
2022/07/25 05:13:07;;;;;;;4.40;3.25;;;;;;;20.23;67.68;100716.63;4952497;29;20198;-51
2022/07/25 05:15:33;;;;;;;3.40;3.10;;;;;;;20.37;66.89;100712.78;4952847;29;20238;-52
2022/07/25 05:17:58;;;;;;;3.17;2.90;;;;;;;20.34;67.40;100716.63;4952451;29;20914;-53
2022/07/25 05:20:24;;;;;;;3.60;3.13;;;;;;;20.45;66.47;100704.00;4951767;29;20199;-53
2022/07/25 05:22:49;;;;;;;6.78;2.95;;;;;;;20.59;65.97;100706.47;4934968;29;20174;-54
2022/07/25 05:25:15;;;;;;;3.70;2.85;;;;;;;20.73;65.73;100702.63;4951953;29;20563;-53
2022/07/25 05:27:40;;;;;;;3.58;3.28;;;;;;;20.81;65.95;100699.25;4952720;29;20676;-53
2022/07/25 05:30:08;;;;;;;3.88;3.17;;;;;;;20.92;65.30;100699.22;4952625;28;20201;-54
2022/07/25 05:32:34;;;;;;;4.85;3.13;;;;;;;21.02;65.34;100699.34;4935495;28;20661;-53
2022/07/25 05:34:59;;;;;;;4.10;2.95;;;;;;;21.05;65.25;100701.78;4952790;28;20178;-52
2022/07/25 05:37:24;;;;;;;4.70;3.22;;;;;;;21.12;65.13;100694.81;4952782;29;20277;-51
2022/07/25 05:39:50;;;;;;;4.82;3.20;;;;;;;20.99;65.11;100693.16;4952413;28;20572;-51
2022/07/25 05:42:15;;;;;;;4.05;3.05;;;;;;;21.06;64.67;100696.22;4952613;29;20772;-50
2022/07/25 05:44:41;;;;;;;4.25;2.90;;;;;;;21.11;64.25;100684.94;4934674;29;20178;-51
2022/07/25 05:47:10;;;;;;;3.30;3.00;;;;;;;21.27;63.38;100671.72;4951931;29;20182;-52
2022/07/25 05:49:36;;;;;;;3.53;2.72;;;;;;;21.43;63.23;100682.22;4934924;28;20231;-51
2022/07/25 05:52:02;;;;;;;5.90;3.13;;;;;;;21.63;63.12;100669.56;4952285;28;20292;-51
2022/07/25 05:54:27;;;;;;;4.47;3.10;;;;;;;21.76;62.49;100674.81;4956987;28;20169;-52
2022/07/25 05:56:53;;;;;;;3.88;2.78;;;;;;;21.92;62.32;100679.78;4971630;28;20170;-54
2022/07/25 05:59:19;;;;;;;4.95;2.58;;;;;;;21.97;61.85;100674.75;4971714;28;20228;-51
2022/07/25 06:01:45;;;;;;;3.08;2.88;;;;;;;22.13;61.19;100677.00;4971212;28;20189;-52
2022/07/25 06:04:10;;;;;;;5.55;2.80;;;;;;;21.98;61.37;100668.31;4970953;28;20311;-51
2022/07/25 06:06:36;;;;;;;3.30;3.00;;;;;;;22.02;61.68;100680.69;4971597;28;20189;-50
2022/07/25 06:09:02;;;;;;;3.13;2.67;;;;;;;22.07;61.46;100672.94;4971660;28;20546;-52
2022/07/25 06:11:29;;;;;;;3.55;2.78;;;;;;;22.08;60.88;100665.63;4971197;28;20217;-52
2022/07/25 06:13:55;;;;;;;4.07;2.97;;;;;;;22.10;61.66;100661.75;4970290;28;20165;-51
2022/07/25 06:16:20;;;;;;;5.43;3.15;;;;;;;22.20;61.00;100661.81;4953760;28;20200;-53
2022/07/25 06:18:46;;;;;;;3.92;2.80;;;;;;;22.56;60.39;100659.47;4951051;28;20194;-52
2022/07/25 06:21:11;;;;;;;6.70;3.15;;;;;;;22.55;60.12;100653.16;4951915;28;20186;-51
2022/07/25 06:23:37;;;;;;;4.32;3.00;;;;;;;22.41;59.92;100653.56;4951546;29;20269;-51
2022/07/25 06:26:02;;;;;;;3.00;2.80;;;;;;;22.56;59.85;100643.97;4951854;29;20186;-51
2022/07/25 06:28:28;;;;;;;4.40;2.92;;;;;;;23.04;57.94;100640.44;4949660;29;20222;-50
2022/07/25 06:30:53;;;;;;;2.90;2.70;;;;;;;23.45;58.01;100641.13;4951362;29;20305;-51
2022/07/25 06:33:19;;;;;;;2.72;2.53;;;;;;;23.89;56.68;100646.06;4951385;29;20190;-51
2022/07/25 06:35:44;;;;;;;9.70;2.88;;;;;;;23.84;55.82;100637.47;4951854;29;20726;-52
2022/07/25 06:38:10;;;;;;;3.58;2.70;;;;;;;23.83;56.22;100630.25;4951442;29;20641;-51
2022/07/25 06:40:35;;;;;;;2.92;2.70;;;;;;;24.32;55.11;100627.31;4951931;29;20201;-51
2022/07/25 06:43:01;;;;;;;4.97;2.63;;;;;;;24.56;54.65;100634.97;4950983;29;20189;-51
2022/07/25 06:45:26;;;;;;;5.03;2.83;;;;;;;24.36;55.18;100637.78;4951661;29;20663;-52
2022/07/25 06:47:52;;;;;;;6.97;2.90;;;;;;;24.47;55.02;100625.78;4951639;29;20178;-51
2022/07/25 06:50:18;;;;;;;4.63;2.63;;;;;;;24.73;54.17;100616.81;4950310;29;20202;-52
2022/07/25 06:52:44;;;;;;;4.53;2.78;;;;;;;24.47;54.70;100621.16;4951445;29;20196;-50
2022/07/25 06:55:11;;;;;;;2.65;2.40;;;;;;;24.12;55.44;100619.19;4934042;29;20666;-52
2022/07/25 06:57:37;;;;;;;6.10;2.50;;;;;;;24.32;55.21;100614.47;4952019;29;20257;-52
2022/07/25 07:00:07;;;;;;;5.60;3.00;;;;;;;24.42;55.81;100608.91;4951311;29;20599;-51
2022/07/25 07:02:33;;;;;;;2.95;2.58;;;;;;;24.37;55.83;100608.53;4952009;29;20167;-50
2022/07/25 07:04:58;;;;;;;3.45;2.50;;;;;;;24.34;54.48;100600.63;4951200;29;20201;-50
2022/07/25 07:07:23;;;;;;;3.65;2.80;;;;;;;24.34;54.61;100597.91;4966524;28;20195;-52
2022/07/25 07:09:49;;;;;;;8.93;2.92;;;;;;;24.36;54.16;100599.47;4951609;29;20296;-50
2022/07/25 07:12:14;;;;;;;3.35;2.75;;;;;;;24.61;54.15;100594.28;4951427;29;20191;-50
2022/07/25 07:14:42;;;;;;;6.05;2.50;;;;;;;25.15;53.04;100595.13;4950878;29;20179;-51
2022/07/25 07:17:07;;;;;;;4.95;2.50;;;;;;;25.14;52.81;100587.03;4934291;29;20653;-51
2022/07/25 07:19:33;;;;;;;5.70;2.58;;;;;;;25.01;53.36;100585.56;4951414;29;20194;-51
2022/07/25 07:21:58;;;;;;;4.43;2.80;;;;;;;25.07;55.12;100595.03;4951757;29;20646;-52
2022/07/25 07:24:24;;;;;;;6.30;3.10;;;;;;;25.14;54.16;100590.63;4950674;29;20650;-50
2022/07/25 07:26:50;;;;;;;5.45;3.00;;;;;;;24.98;53.88;100579.53;4951375;28;20298;-50
2022/07/25 07:29:15;;;;;;;6.28;2.78;;;;;;;25.35;53.64;100570.25;4951317;28;20642;-49
2022/07/25 07:31:40;;;;;;;3.10;2.42;;;;;;;25.66;53.06;100570.63;4951585;29;20210;-50
2022/07/25 07:34:06;;;;;;;6.78;2.83;;;;;;;25.71;52.14;100560.00;4953719;29;20723;-51
2022/07/25 07:36:31;;;;;;;3.13;2.70;;;;;;;25.54;53.18;100560.94;4954598;29;20181;-51
2022/07/25 07:38:57;;;;;;;2.80;2.60;;;;;;;25.44;52.98;100558.31;4954942;29;20673;-51
2022/07/25 07:41:22;;;;;;;4.93;2.80;;;;;;;25.57;52.60;100560.63;4954603;29;20210;-50
2022/07/25 07:43:48;;;;;;;4.75;3.03;;;;;;;25.79;52.83;100561.94;4954045;28;20181;-50
2022/07/25 07:46:14;;;;;;;6.63;2.50;;;;;;;25.68;51.90;100571.31;4954493;29;20313;-51
2022/07/25 07:48:39;;;;;;;3.38;2.40;;;;;;;25.37;53.71;100554.50;4954645;29;20583;-50
2022/07/25 07:51:05;;;;;;;3.40;2.70;;;;;;;25.56;53.58;100551.53;4954825;29;20210;-51
2022/07/25 07:56:16;;;;;;;6.57;2.80;;;;;;;25.88;52.64;100548.09;4954261;29;20262;-49
2022/07/25 07:58:42;;;;;;;5.57;2.95;;;;;;;25.75;53.58;100542.19;4954274;29;20190;-50
2022/07/25 08:01:07;;;;;;;2.78;2.58;;;;;;;25.77;53.00;100531.91;4954443;29;20185;-50
2022/07/25 08:03:33;;;;;;;4.95;2.92;;;;;;;26.01;51.66;100531.19;4952759;29;20188;-50
2022/07/25 08:05:58;;;;;;;3.47;2.70;;;;;;;26.39;50.86;100522.50;4953311;29;20209;-50
2022/07/25 08:08:24;;;;;;;5.75;3.00;;;;;;;26.71;49.95;100524.47;4954469;29;20171;-49
2022/07/25 08:10:50;;;;;;;7.72;2.95;;;;;;;26.83;49.99;100517.59;4953805;29;20246;-50
2022/07/25 08:13:18;;;;;;;5.05;2.85;;;;;;;27.18;50.22;100517.38;4953592;29;20658;-51
2022/07/25 08:15:46;;;;;;;5.03;3.25;;;;;;;27.31;49.37;100509.47;4954220;29;20175;-49
2022/07/25 08:18:12;;;;;;;4.28;3.10;;;;;;;27.18;50.21;100503.63;4954095;29;20198;-50
2022/07/25 08:20:37;;;;;;;6.28;3.50;;;;;;;27.19;49.03;100505.38;4953722;29;20274;-50
2022/07/25 08:23:04;;;;;;;3.97;2.83;;;;;;;27.60;48.87;100495.13;4953639;29;20186;-50
2022/07/25 08:25:30;;;;;;;5.07;3.20;;;;;;;27.83;48.05;100492.44;4952698;28;20634;-51
2022/07/25 08:27:55;;;;;;;5.00;3.63;;;;;;;27.87;48.17;100491.06;4953209;29;20186;-50
2022/07/25 08:30:21;;;;;;;5.50;4.07;;;;;;;26.99;50.14;100491.97;4953660;28;20206;-51
2022/07/25 08:32:52;;;;;;;3.75;3.20;;;;;;;26.98;49.68;100493.00;4953570;29;20267;-49
2022/07/25 08:35:19;;;;;;;5.53;3.35;;;;;;;26.68;50.34;100491.84;4953140;29;20183;-50
2022/07/25 08:37:46;;;;;;;4.43;3.40;;;;;;;27.37;49.55;100491.41;4953673;29;20234;-50
2022/07/25 08:40:12;;;;;;;3.92;3.13;;;;;;;27.86;48.58;100483.00;4953448;28;20202;-50
2022/07/25 08:42:39;;;;;;;5.35;3.40;;;;;;;28.33;47.64;100484.78;4953605;29;20174;-49
2022/07/25 08:45:07;;;;;;;4.45;3.75;;;;;;;28.10;46.99;100471.84;4934108;29;20170;-49
2022/07/25 08:47:34;;;;;;;6.93;3.85;;;;;;;28.35;47.19;100464.25;4936736;29;20648;-49
2022/07/25 08:50:05;;;;;;;3.75;3.45;;;;;;;28.01;47.77;100466.56;4953418;28;20617;-49
2022/07/25 08:52:34;;;;;;;4.80;3.50;;;;;;;28.11;47.85;100473.56;4953299;29;20714;-51
2022/07/25 08:55:01;;;;;;;5.35;3.45;;;;;;;27.91;48.26;100459.38;4934632;29;20191;-49
2022/07/25 08:57:27;;;;;;;4.25;3.60;;;;;;;27.45;49.04;100453.72;4951476;28;20182;-49
2022/07/25 08:59:57;;;;;;;5.65;3.58;;;;;;;27.65;48.72;100458.81;4952700;28;20250;-49
2022/07/25 09:02:25;;;;;;;5.75;3.45;;;;;;;27.89;49.08;100455.97;4952042;29;20182;-50
2022/07/25 09:04:50;;;;;;;4.63;3.80;;;;;;;28.41;48.18;100445.28;4951141;29;20170;-51
2022/07/25 09:07:16;;;;;;;5.75;3.92;;;;;;;28.00;47.69;100453.84;4952360;29;20314;-51
2022/07/25 09:09:43;;;;;;;4.78;4.00;;;;;;;28.21;47.20;100448.53;4952979;29;20190;-51
2022/07/25 09:12:08;;;;;;;6.07;4.20;;;;;;;28.71;47.62;100438.84;4953342;29;20863;-50
2022/07/25 09:14:43;;;;;;;4.22;3.75;;;;;;;29.23;46.45;100439.88;4952592;29;20306;-50
2022/07/25 09:17:09;;;;;;;4.63;3.90;;;;;;;29.75;45.82;100432.53;4952960;29;20186;-51
2022/07/25 09:19:34;;;;;;;4.70;4.20;;;;;;;29.78;44.56;100429.38;4952545;29;20190;-49
2022/07/25 09:22:07;;;;;;;5.93;4.20;;;;;;;30.21;44.27;100431.34;4952905;29;20178;-50
2022/07/25 09:24:33;;;;;;;7.45;4.03;;;;;;;29.73;44.60;100423.59;4952452;28;20209;-51
2022/07/25 09:27:08;;;;;;;5.22;3.90;;;;;;;29.79;44.25;100425.56;4952506;28;20178;-51
2022/07/25 09:29:37;;;;;;;4.82;3.90;;;;;;;30.36;43.64;100413.66;4952645;28;20201;-51
2022/07/25 09:32:22;;;;;;;3.85;3.50;;;;;;;30.76;43.75;100418.66;4952560;29;20217;-49
2022/07/25 09:34:49;;;;;;;4.63;4.05;;;;;;;30.55;43.86;100417.66;4952148;29;20523;-50
2022/07/25 09:37:17;;;;;;;6.00;4.45;;;;;;;30.84;42.92;100404.69;4952948;29;20556;-51
2022/07/25 09:39:44;;;;;;;7.30;4.10;;;;;;;30.88;43.11;100405.19;4952292;28;20266;-50
2022/07/25 09:42:27;;;;;;;6.03;4.05;;;;;;;30.45;42.96;100417.13;4952651;29;20186;-50
2022/07/25 09:45:16;;;;;;;6.45;4.25;;;;;;;30.84;42.80;100415.75;4920309;29;20509;-49
2022/07/25 09:47:56;;;;;;;4.70;4.25;;;;;;;30.19;43.25;100415.78;4942250;29;20209;-49
2022/07/25 09:50:24;;;;;;;6.03;4.30;;;;;;;30.03;42.80;100402.25;4952079;28;20712;-49
2022/07/25 09:52:51;;;;;;;6.32;3.88;;;;;;;30.10;44.27;100407.84;4952111;29;20551;-48
2022/07/25 09:55:18;;;;;;;4.78;4.38;;;;;;;30.14;42.93;100409.16;4951484;28;20597;-48
2022/07/25 09:57:45;;;;;;;6.45;4.35;;;;;;;30.04;43.76;100398.44;4935161;29;20197;-48
2022/07/25 10:00:12;;;;;;;8.48;4.70;;;;;;;29.92;43.96;100395.34;4952320;28;20194;-50
2022/07/25 10:02:48;;;;;;;5.00;4.50;;;;;;;29.73;44.55;100398.72;4951285;29;20186;-48
2022/07/25 10:05:20;;;;;;;4.63;4.22;;;;;;;30.01;44.57;100409.88;4951938;29;20170;-48
2022/07/25 10:07:49;;;;;;;5.55;4.22;;;;;;;30.10;44.56;100396.78;4952178;29;20564;-48
2022/07/25 10:10:40;;;;;;;5.15;4.68;;;;;;;29.67;44.86;100407.75;4952180;28;20217;-49
2022/07/25 10:13:15;;;;;;;6.75;4.38;;;;;;;30.07;44.90;100406.34;4951830;29;20555;-48
2022/07/25 10:15:48;;;;;;;7.53;4.47;;;;;;;29.86;44.02;100400.78;4951770;29;20173;-48
2022/07/25 10:18:17;;;;;;;6.60;4.40;;;;;;;30.03;44.92;100404.16;4952237;29;20170;-48
2022/07/25 10:20:44;;;;;;;5.47;4.60;;;;;;;30.24;44.10;100398.66;4951909;28;20714;-48
2022/07/25 10:23:39;;;;;;;5.68;4.60;;;;;;;29.81;44.49;100398.63;4951441;29;20217;-49
2022/07/25 10:26:12;;;;;;;5.32;4.63;;;;;;;29.95;45.38;100394.09;4934934;29;20225;-50
2022/07/25 10:28:49;;;;;;;6.35;4.10;;;;;;;30.10;45.24;100389.34;4952248;29;20180;-49
2022/07/25 10:31:33;;;;;;;5.07;4.65;;;;;;;30.91;43.54;100389.03;4951846;28;20800;-48
2022/07/25 10:34:02;;;;;;;6.88;4.78;;;;;;;31.15;42.67;100384.91;4951473;29;20162;-48
2022/07/25 10:36:42;;;;;;;4.82;4.43;;;;;;;30.96;43.02;100382.88;4951740;28;20186;-48
2022/07/25 10:39:09;;;;;;;4.68;3.97;;;;;;;30.83;43.67;100380.88;4952306;28;20178;-49
2022/07/25 10:41:42;;;;;;;5.10;4.40;;;;;;;30.09;44.00;100390.41;4951559;28;20214;-50
2022/07/25 10:44:13;;;;;;;5.28;4.65;;;;;;;30.08;44.73;100387.84;4951332;29;20190;-49
2022/07/25 10:46:38;;;;;;;5.07;4.53;;;;;;;30.53;43.47;100388.50;4934548;29;20713;-48
2022/07/25 10:49:06;;;;;;;4.88;4.20;;;;;;;30.60;44.05;100392.19;4951318;29;20186;-48
2022/07/25 10:51:36;;;;;;;5.00;4.50;;;;;;;30.45;44.13;100391.41;4951546;28;20301;-47
2022/07/25 10:54:13;;;;;;;9.45;4.50;;;;;;;30.51;44.16;100385.94;4951112;28;20654;-49
2022/07/25 10:56:53;;;;;;;7.25;4.28;;;;;;;30.29;43.66;100384.25;4951905;29;20235;-48
2022/07/25 10:59:45;;;;;;;7.15;4.57;;;;;;;30.09;44.01;100387.66;4951762;29;20222;-48
2022/07/25 11:02:15;;;;;;;5.15;4.63;;;;;;;29.82;45.04;100382.91;4948017;29;20190;-48
2022/07/25 11:04:42;;;;;;;5.57;4.90;;;;;;;29.90;44.82;100382.78;4951145;29;20653;-48
2022/07/25 11:07:13;;;;;;;6.22;4.60;;;;;;;30.36;44.40;100383.25;4951447;28;20247;-48
2022/07/25 11:09:40;;;;;;;7.10;4.55;;;;;;;30.12;44.93;100373.44;4955251;28;20555;-49
2022/07/25 11:12:06;;;;;;;4.65;4.25;;;;;;;30.38;44.64;100372.84;4954960;28;20635;-49
2022/07/25 11:14:42;;;;;;;4.57;4.18;;;;;;;30.65;45.53;100364.75;4954840;29;20178;-48
2022/07/25 11:17:13;;;;;;;4.68;4.38;;;;;;;30.63;44.73;100371.56;4955163;28;20174;-49
2022/07/25 11:19:41;;;;;;;5.70;4.70;;;;;;;31.07;43.95;100353.78;4955447;28;20288;-48
2022/07/25 11:22:07;;;;;;;5.05;4.43;;;;;;;31.00;45.27;100356.50;4955188;29;20181;-49
2022/07/25 11:24:35;;;;;;;5.30;4.57;;;;;;;31.12;44.21;100359.56;4954133;29;20193;-49
2022/07/25 11:27:00;;;;;;;4.97;4.53;;;;;;;31.23;43.56;100358.13;4955071;29;20182;-49